Time;durP1;ratioP1;P1;durP2;ratioP2;P2;SDS_P1;SDS_P2;PMS_P1;PMS_P2;Temp;Humidity;BMP_temperature;BMP_pressure;BME280_temperature;BME280_humidity;BME280_pressure;Samples;Min_cycle;Max_cycle;Signal;HPM_P1;HPM_P2
2021/07/20 00:01:42;;;;;;;19.53;16.83;;;17.30;99.90;;;;;;5070141;28;20537;-65
2021/07/20 00:04:10;;;;;;;20.70;16.67;;;17.20;99.90;;;;;;5069956;28;20463;-65
2021/07/20 00:06:37;;;;;;;21.07;17.90;;;17.20;99.90;;;;;;5069818;28;20439;-65
2021/07/20 00:09:04;;;;;;;23.93;18.20;;;17.20;99.90;;;;;;5069488;28;20483;-65
2021/07/20 00:11:31;;;;;;;18.60;16.60;;;17.10;99.90;;;;;;5069833;28;20522;-65
2021/07/20 00:13:58;;;;;;;21.77;17.73;;;17.00;99.90;;;;;;5069837;28;20538;-65
2021/07/20 00:16:25;;;;;;;18.83;15.27;;;16.90;99.90;;;;;;5069911;28;20474;-67
2021/07/20 00:18:52;;;;;;;21.10;17.60;;;16.80;99.90;;;;;;5069791;28;20451;-65
2021/07/20 00:21:20;;;;;;;18.90;16.53;;;16.70;99.90;;;;;;5069424;28;20473;-64
2021/07/20 00:23:47;;;;;;;20.90;17.40;;;16.60;99.90;;;;;;5069563;28;20471;-65
2021/07/20 00:26:15;;;;;;;20.90;18.27;;;16.60;99.90;;;;;;5069941;28;20447;-65
2021/07/20 00:28:41;;;;;;;19.57;17.37;;;16.60;99.90;;;;;;5070418;28;20475;-65
2021/07/20 00:31:08;;;;;;;19.63;17.53;;;16.70;99.90;;;;;;5069607;28;20451;-65
2021/07/20 00:33:35;;;;;;;19.53;17.40;;;16.60;99.90;;;;;;5070933;28;20554;-65
2021/07/20 00:36:02;;;;;;;20.73;17.30;;;16.60;99.90;;;;;;5073403;28;20832;-66
2021/07/20 00:38:31;;;;;;;22.17;17.10;;;16.50;99.90;;;;;;5072877;28;20479;-66
2021/07/20 00:40:58;;;;;;;21.97;17.20;;;16.40;99.90;;;;;;5072563;28;20986;-65
2021/07/20 00:43:25;;;;;;;20.10;17.53;;;16.40;99.90;;;;;;5073279;28;20462;-65
2021/07/20 00:45:52;;;;;;;20.47;18.27;;;16.30;99.90;;;;;;5072996;28;20442;-64
2021/07/20 00:48:18;;;;;;;22.40;17.90;;;16.20;99.90;;;;;;5073031;28;20490;-65
2021/07/20 00:50:46;;;;;;;20.60;17.40;;;16.10;99.90;;;;;;5072837;28;20442;-66
2021/07/20 00:53:15;;;;;;;19.43;17.20;;;16.00;99.90;;;;;;5072618;28;21046;-66
2021/07/20 00:55:43;;;;;;;20.87;17.10;;;15.90;99.90;;;;;;5072889;28;20455;-65
2021/07/20 00:58:11;;;;;;;20.60;18.40;;;15.90;99.90;;;;;;5072929;28;20438;-65
2021/07/20 01:00:38;;;;;;;24.47;17.90;;;15.80;99.90;;;;;;5072622;28;20443;-65
2021/07/20 01:03:07;;;;;;;20.27;17.10;;;15.80;99.90;;;;;;5072693;28;20458;-65
2021/07/20 01:05:34;;;;;;;22.70;17.47;;;15.80;99.90;;;;;;5072774;28;20803;-65
2021/07/20 01:08:05;;;;;;;20.63;18.07;;;15.70;99.90;;;;;;5072577;28;20450;-64
2021/07/20 01:10:32;;;;;;;19.93;16.60;;;15.80;99.90;;;;;;5072460;28;20489;-65
2021/07/20 01:13:01;;;;;;;21.07;17.47;;;15.70;99.90;;;;;;5072790;28;20445;-64
2021/07/20 01:15:29;;;;;;;22.57;18.27;;;15.70;99.90;;;;;;5072459;28;20451;-65
2021/07/20 01:17:58;;;;;;;20.93;17.37;;;15.70;99.90;;;;;;5072475;28;20455;-65
2021/07/20 01:20:27;;;;;;;19.87;17.77;;;15.70;99.90;;;;;;5071985;28;20435;-65
2021/07/20 01:22:59;;;;;;;20.80;17.70;;;15.70;99.90;;;;;;5072321;28;20458;-65
2021/07/20 01:25:28;;;;;;;23.03;17.40;;;15.60;99.90;;;;;;5072516;28;20557;-65
2021/07/20 01:27:59;;;;;;;20.70;17.77;;;15.50;99.90;;;;;;5072532;28;20447;-65
2021/07/20 01:30:27;;;;;;;22.17;18.10;;;15.40;99.90;;;;;;5072161;28;20475;-65
2021/07/20 01:32:56;;;;;;;21.63;16.47;;;15.40;99.90;;;;;;5072259;28;20450;-65
2021/07/20 01:35:24;;;;;;;19.70;16.67;;;15.30;99.90;;;;;;5072176;28;20514;-65
2021/07/20 01:37:52;;;;;;;22.37;16.77;;;15.30;99.90;;;;;;5072542;28;21016;-65
2021/07/20 01:40:20;;;;;;;20.37;17.27;;;15.30;99.90;;;;;;5071814;28;20443;-64
2021/07/20 01:42:49;;;;;;;19.40;16.67;;;15.30;99.90;;;;;;5072398;28;20449;-65
2021/07/20 01:45:16;;;;;;;22.97;16.33;;;15.20;99.90;;;;;;5071806;28;21000;-65
2021/07/20 01:47:46;;;;;;;20.33;16.80;;;15.10;99.90;;;;;;5071959;28;20458;-65
2021/07/20 01:50:15;;;;;;;21.43;15.30;;;15.10;99.90;;;;;;5071803;28;20515;-66
2021/07/20 01:52:43;;;;;;;20.80;16.67;;;15.10;99.90;;;;;;5071806;28;21168;-65
2021/07/20 01:55:12;;;;;;;19.93;16.87;;;15.10;99.90;;;;;;5072348;28;20485;-65
2021/07/20 01:57:40;;;;;;;20.23;17.77;;;15.10;99.90;;;;;;5071798;28;20447;-65
2021/07/20 02:00:15;;;;;;;20.47;16.90;;;15.00;99.90;;;;;;5071310;28;20526;-65
2021/07/20 02:02:54;;;;;;;23.07;18.43;;;15.00;99.90;;;;;;5071602;28;20470;-65
2021/07/20 02:08:28;;;;;;;23.83;17.80;;;14.90;99.90;;;;;;5071329;28;20923;-66
2021/07/20 02:10:58;;;;;;;22.40;16.93;;;14.80;99.90;;;;;;5070893;28;20483;-65
2021/07/20 02:13:27;;;;;;;20.70;16.90;;;14.80;99.90;;;;;;5071253;28;20463;-65
2021/07/20 02:15:56;;;;;;;22.83;17.07;;;14.70;99.90;;;;;;5071452;28;20501;-66
2021/07/20 02:18:27;;;;;;;22.27;18.50;;;14.70;99.90;;;;;;5070901;28;20454;-65
2021/07/20 02:20:56;;;;;;;21.50;16.63;;;14.70;99.90;;;;;;5070687;28;20443;-64
2021/07/20 02:23:24;;;;;;;24.90;16.83;;;14.70;99.90;;;;;;5070951;28;20904;-66
2021/07/20 02:25:52;;;;;;;23.50;17.63;;;14.70;99.90;;;;;;5071247;28;20477;-65
2021/07/20 02:28:21;;;;;;;20.03;16.80;;;14.70;99.90;;;;;;5070904;28;21108;-65
2021/07/20 02:30:49;;;;;;;23.37;17.70;;;14.70;99.90;;;;;;5070877;28;20566;-65
2021/07/20 02:33:20;;;;;;;21.90;17.57;;;14.60;99.90;;;;;;5071062;28;20467;-65
2021/07/20 02:35:49;;;;;;;21.40;15.40;;;14.60;99.90;;;;;;5070948;28;20453;-64
2021/07/20 02:38:17;;;;;;;20.33;15.27;;;14.60;99.90;;;;;;5071126;28;20913;-65
2021/07/20 02:40:46;;;;;;;20.77;16.60;;;14.70;99.90;;;;;;5070593;28;20540;-65
2021/07/20 02:43:14;;;;;;;24.27;17.40;;;14.70;99.90;;;;;;5070611;28;20479;-65
2021/07/20 02:45:43;;;;;;;22.47;16.93;;;14.70;99.90;;;;;;5070762;28;20445;-65
2021/07/20 02:48:10;;;;;;;22.87;17.93;;;14.70;99.90;;;;;;5070684;28;20825;-65
2021/07/20 02:50:40;;;;;;;24.93;17.00;;;14.70;99.90;;;;;;5070306;28;20498;-64
2021/07/20 02:53:07;;;;;;;23.27;17.97;;;14.70;99.90;;;;;;5070732;28;20454;-64
2021/07/20 02:55:36;;;;;;;22.57;18.03;;;14.60;99.90;;;;;;5070372;28;20451;-65
2021/07/20 02:58:05;;;;;;;23.53;17.67;;;14.50;99.90;;;;;;5070329;28;20467;-65
2021/07/20 03:00:32;;;;;;;24.77;18.27;;;14.50;99.90;;;;;;5070023;28;20435;-65
2021/07/20 03:02:59;;;;;;;22.17;18.40;;;14.40;99.90;;;;;;5071001;28;20443;-65
2021/07/20 03:05:26;;;;;;;23.13;18.10;;;14.40;99.90;;;;;;5070225;28;20959;-64
2021/07/20 03:07:59;;;;;;;23.77;18.20;;;14.40;99.90;;;;;;5070792;28;20459;-66
2021/07/20 03:10:29;;;;;;;22.00;17.43;;;14.50;99.90;;;;;;5070112;28;20851;-64
2021/07/20 03:13:01;;;;;;;23.20;18.73;;;14.40;99.90;;;;;;5070010;28;20546;-65
2021/07/20 03:15:29;;;;;;;25.50;18.57;;;14.30;99.90;;;;;;5070273;28;20450;-64
2021/07/20 03:17:58;;;;;;;23.30;17.33;;;14.40;99.90;;;;;;5069998;28;20495;-65
2021/07/20 03:20:27;;;;;;;24.37;17.93;;;14.40;99.90;;;;;;5070063;28;20438;-66
2021/07/20 03:22:56;;;;;;;20.80;16.70;;;14.40;99.90;;;;;;5070190;28;20847;-65
2021/07/20 03:25:24;;;;;;;25.00;18.07;;;14.30;99.90;;;;;;5070867;28;20443;-66
2021/07/20 03:27:51;;;;;;;22.37;17.47;;;14.30;99.90;;;;;;5070258;28;20536;-66
2021/07/20 03:30:19;;;;;;;22.80;17.30;;;14.30;99.90;;;;;;5070289;28;20479;-65
2021/07/20 03:32:47;;;;;;;22.97;16.97;;;14.20;99.90;;;;;;5070372;28;20457;-66
2021/07/20 03:35:16;;;;;;;20.63;16.57;;;14.30;99.90;;;;;;5070462;28;20466;-66
2021/07/20 03:37:44;;;;;;;19.30;15.37;;;14.20;99.90;;;;;;5070254;28;20461;-65
2021/07/20 03:40:15;;;;;;;20.13;16.60;;;14.20;99.90;;;;;;5069814;28;20449;-65
2021/07/20 03:42:42;;;;;;;19.63;16.07;;;14.10;99.90;;;;;;5070166;28;20443;-66
2021/07/20 03:45:11;;;;;;;20.73;16.63;;;14.00;99.90;;;;;;5070184;28;20467;-66
2021/07/20 03:47:41;;;;;;;23.40;17.73;;;14.00;99.90;;;;;;5070272;28;20457;-65
2021/07/20 03:50:09;;;;;;;21.50;15.60;;;14.10;99.90;;;;;;5069659;28;20475;-66
2021/07/20 03:52:39;;;;;;;20.17;16.70;;;14.10;99.90;;;;;;5070412;28;20449;-65
2021/07/20 03:55:08;;;;;;;21.83;16.50;;;14.10;99.90;;;;;;5069604;28;21016;-66
2021/07/20 03:57:37;;;;;;;21.20;16.23;;;14.00;99.90;;;;;;5069925;28;20439;-66
2021/07/20 04:00:08;;;;;;;22.57;18.83;;;14.10;99.90;;;;;;5069298;28;20482;-65
2021/07/20 04:02:45;;;;;;;23.77;19.00;;;14.00;99.90;;;;;;5069749;28;20457;-65
2021/07/20 04:05:14;;;;;;;19.77;17.00;;;14.00;99.90;;;;;;5069566;28;20470;-65
2021/07/20 04:07:43;;;;;;;24.03;17.97;;;13.90;99.90;;;;;;5069775;28;20439;-64
2021/07/20 04:10:12;;;;;;;21.40;17.47;;;13.90;99.90;;;;;;5072971;28;20487;-65
2021/07/20 04:12:41;;;;;;;20.50;17.17;;;14.00;99.90;;;;;;5073606;28;20817;-64
2021/07/20 04:15:09;;;;;;;21.53;16.40;;;14.10;99.90;;;;;;5072530;28;20466;-65
2021/07/20 04:17:38;;;;;;;21.20;17.13;;;14.10;99.90;;;;;;5073776;28;20870;-64
2021/07/20 04:20:06;;;;;;;22.50;16.60;;;14.10;99.90;;;;;;5073174;28;20830;-65
2021/07/20 04:22:33;;;;;;;21.30;16.73;;;14.00;99.90;;;;;;5073310;28;20449;-65
2021/07/20 04:25:01;;;;;;;21.93;18.07;;;14.00;99.90;;;;;;5073319;28;20493;-66
2021/07/20 04:27:29;;;;;;;23.17;16.70;;;14.10;99.90;;;;;;5072959;28;20925;-67
2021/07/20 04:29:57;;;;;;;20.80;16.57;;;14.20;99.90;;;;;;5072829;28;20474;-64
2021/07/20 04:32:26;;;;;;;20.93;17.80;;;14.30;99.90;;;;;;5073236;28;21019;-66
2021/07/20 04:34:53;;;;;;;19.33;17.23;;;14.30;99.90;;;;;;5073164;28;20897;-66
2021/07/20 04:37:21;;;;;;;21.53;16.70;;;14.30;99.90;;;;;;5072906;28;21146;-65
2021/07/20 04:39:48;;;;;;;23.93;16.37;;;14.30;99.90;;;;;;5072774;28;20453;-65
2021/07/20 04:42:16;;;;;;;22.90;17.40;;;14.40;99.90;;;;;;5072694;28;20465;-64
2021/07/20 04:44:43;;;;;;;20.67;16.43;;;14.50;99.90;;;;;;5073198;28;20480;-65
2021/07/20 04:47:11;;;;;;;20.27;16.20;;;14.60;99.90;;;;;;5072674;28;20446;-66
2021/07/20 04:49:41;;;;;;;20.90;17.33;;;14.70;99.90;;;;;;5072598;28;20572;-64
2021/07/20 04:52:08;;;;;;;24.57;17.30;;;14.80;99.90;;;;;;5072755;28;21147;-65
2021/07/20 04:54:36;;;;;;;22.10;16.63;;;14.80;99.90;;;;;;5072110;28;20471;-68
2021/07/20 04:57:02;;;;;;;19.30;15.60;;;14.90;99.90;;;;;;5077240;28;20447;-64
2021/07/20 04:59:31;;;;;;;22.00;16.70;;;14.90;99.90;;;;;;5073981;28;21002;-65
2021/07/20 05:01:58;;;;;;;20.70;16.93;;;14.90;99.90;;;;;;5077907;28;20534;-65
2021/07/20 05:04:28;;;;;;;21.13;17.03;;;15.00;99.90;;;;;;5080578;28;20466;-64
2021/07/20 05:06:55;;;;;;;17.90;16.07;;;15.10;99.90;;;;;;5087484;28;20449;-65
2021/07/20 05:09:22;;;;;;;21.67;16.17;;;15.00;99.90;;;;;;5090661;28;20434;-66
2021/07/20 05:11:51;;;;;;;23.80;16.50;;;15.20;99.90;;;;;;5091251;28;20597;-65
2021/07/20 05:14:19;;;;;;;19.53;14.70;;;15.30;99.90;;;;;;5091519;28;20478;-65
2021/07/20 05:16:47;;;;;;;18.70;16.17;;;15.40;99.90;;;;;;5091950;28;20442;-67
2021/07/20 05:19:14;;;;;;;20.60;16.00;;;15.40;99.90;;;;;;5091168;28;20828;-65
2021/07/20 05:21:45;;;;;;;18.90;14.83;;;15.60;99.90;;;;;;5091902;28;21071;-64
2021/07/20 05:24:12;;;;;;;18.27;15.03;;;15.70;99.90;;;;;;5092276;28;21229;-65
2021/07/20 05:26:45;;;;;;;17.57;14.80;;;15.70;99.90;;;;;;5091184;28;20457;-65
2021/07/20 05:29:15;;;;;;;20.50;14.17;;;15.80;99.90;;;;;;5091577;28;20544;-65
2021/07/20 05:31:44;;;;;;;19.17;15.00;;;15.90;99.90;;;;;;5092385;28;20481;-65
2021/07/20 05:34:13;;;;;;;17.13;14.03;;;16.00;99.90;;;;;;5092074;28;21074;-66
2021/07/20 05:36:40;;;;;;;18.63;15.87;;;16.00;99.90;;;;;;5092002;28;20938;-66
2021/07/20 05:39:11;;;;;;;19.93;14.63;;;16.10;99.90;;;;;;5091750;28;20451;-66
2021/07/20 05:41:39;;;;;;;17.40;14.53;;;16.20;99.90;;;;;;5091783;28;20438;-65
2021/07/20 05:44:08;;;;;;;18.60;14.97;;;16.30;99.90;;;;;;5091654;28;20470;-65
2021/07/20 05:46:36;;;;;;;17.23;14.20;;;16.30;99.90;;;;;;5091735;28;20450;-65
2021/07/20 05:49:03;;;;;;;18.07;14.70;;;16.40;99.90;;;;;;5091218;28;20561;-65
2021/07/20 05:51:30;;;;;;;19.47;15.40;;;16.40;99.90;;;;;;5091346;28;21003;-65
2021/07/20 05:53:58;;;;;;;17.30;15.40;;;16.50;99.90;;;;;;5090998;28;21052;-65
2021/07/20 05:56:31;;;;;;;16.70;13.07;;;16.60;99.90;;;;;;5091117;28;20450;-65
2021/07/20 05:58:58;;;;;;;16.80;13.90;;;16.60;99.90;;;;;;5091201;28;20495;-64
2021/07/20 06:01:25;;;;;;;19.80;13.40;;;16.70;99.90;;;;;;5091113;28;20478;-65
2021/07/20 06:03:55;;;;;;;17.67;13.57;;;16.80;99.90;;;;;;5091270;28;20466;-65
2021/07/20 06:06:26;;;;;;;15.97;13.30;;;17.00;99.90;;;;;;5091281;28;21131;-66
2021/07/20 06:08:54;;;;;;;16.27;13.53;;;17.00;99.90;;;;;;5091444;28;20469;-66
2021/07/20 06:11:22;;;;;;;15.90;12.53;;;17.10;99.90;;;;;;5090990;28;20527;-65
2021/07/20 06:13:53;;;;;;;17.10;13.10;;;17.20;99.90;;;;;;5090802;28;20466;-65
2021/07/20 06:16:23;;;;;;;16.70;12.73;;;17.20;99.90;;;;;;5091218;28;20442;-65
2021/07/20 06:18:50;;;;;;;15.93;12.97;;;17.30;99.90;;;;;;5090673;28;20465;-65
2021/07/20 06:21:19;;;;;;;15.27;12.73;;;17.30;99.90;;;;;;5090870;28;20832;-65
2021/07/20 06:23:47;;;;;;;18.10;14.13;;;17.40;99.90;;;;;;5090876;28;20466;-65
2021/07/20 06:26:17;;;;;;;14.87;12.17;;;17.40;99.90;;;;;;5090862;28;20442;-65
2021/07/20 06:28:45;;;;;;;19.70;13.33;;;17.40;99.90;;;;;;5090906;28;20456;-65
2021/07/20 06:31:17;;;;;;;16.00;12.77;;;17.50;99.90;;;;;;5089708;28;20477;-66
2021/07/20 06:33:45;;;;;;;20.60;12.73;;;17.50;99.90;;;;;;5090908;28;20462;-66
2021/07/20 06:36:15;;;;;;;14.23;11.53;;;17.50;99.90;;;;;;5090725;28;20442;-65
2021/07/20 06:38:43;;;;;;;14.60;12.23;;;17.60;99.90;;;;;;5090604;28;20453;-65
2021/07/20 06:41:11;;;;;;;19.73;13.93;;;17.60;99.90;;;;;;5090245;28;20449;-65
2021/07/20 06:43:40;;;;;;;15.03;12.30;;;17.70;99.90;;;;;;5090397;28;20466;-64
2021/07/20 06:46:09;;;;;;;18.70;12.80;;;17.90;99.90;;;;;;5090592;28;20460;-64
2021/07/20 06:48:39;;;;;;;15.43;12.43;;;17.90;99.90;;;;;;5090706;28;20448;-64
2021/07/20 06:51:08;;;;;;;19.07;13.33;;;18.00;99.90;;;;;;5090141;28;20515;-63
2021/07/20 06:53:35;;;;;;;16.60;12.17;;;18.00;99.90;;;;;;5090274;28;20468;-65
2021/07/20 06:56:06;;;;;;;16.40;12.80;;;18.00;99.90;;;;;;5090645;28;20525;-65
2021/07/20 06:58:34;;;;;;;19.03;11.93;;;18.00;99.90;;;;;;5090319;28;20944;-65
2021/07/20 07:01:04;;;;;;;13.63;11.10;;;18.00;99.90;;;;;;5090023;28;20438;-66
2021/07/20 07:03:34;;;;;;;16.83;12.63;;;18.20;99.90;;;;;;5090275;28;20916;-64
2021/07/20 07:06:04;;;;;;;18.10;13.37;;;18.30;99.90;;;;;;5090122;28;20521;-65
2021/07/20 07:08:32;;;;;;;16.57;11.70;;;18.40;99.90;;;;;;5090584;28;20450;-65
2021/07/20 07:11:00;;;;;;;15.67;12.30;;;18.50;99.90;;;;;;5090134;28;20496;-65
2021/07/20 07:13:28;;;;;;;15.37;12.10;;;18.70;99.90;;;;;;5090220;28;20504;-65
2021/07/20 07:15:56;;;;;;;14.83;10.70;;;18.70;99.90;;;;;;5090326;28;20442;-65
2021/07/20 07:18:23;;;;;;;15.07;12.40;;;18.70;99.90;;;;;;5090141;28;20468;-65
2021/07/20 07:20:51;;;;;;;14.63;12.60;;;18.70;99.90;;;;;;5089661;28;20944;-65
2021/07/20 07:23:21;;;;;;;12.93;10.97;;;18.70;99.90;;;;;;5090262;28;20470;-65
2021/07/20 07:25:50;;;;;;;14.80;11.77;;;18.80;99.90;;;;;;5089999;28;20484;-66
2021/07/20 07:28:18;;;;;;;16.23;11.90;;;19.00;99.90;;;;;;5090019;28;20453;-65
2021/07/20 07:30:47;;;;;;;14.73;12.73;;;19.00;99.90;;;;;;5089723;28;20473;-65
2021/07/20 07:33:15;;;;;;;15.60;12.30;;;19.10;99.90;;;;;;5089935;28;20468;-65
2021/07/20 07:35:42;;;;;;;13.40;11.27;;;19.00;99.90;;;;;;5089956;28;20461;-65
2021/07/20 07:38:09;;;;;;;16.60;12.37;;;19.10;99.90;;;;;;5089952;28;20441;-65
2021/07/20 07:40:38;;;;;;;13.80;12.30;;;19.20;99.90;;;;;;5089578;28;20533;-66
2021/07/20 07:43:06;;;;;;;13.03;11.63;;;19.20;99.90;;;;;;5092120;28;20447;-65
2021/07/20 07:45:34;;;;;;;13.33;11.20;;;19.40;99.90;;;;;;5094392;28;20456;-64
2021/07/20 07:48:03;;;;;;;15.10;11.87;;;19.50;99.90;;;;;;5094399;28;20525;-65
2021/07/20 07:50:30;;;;;;;16.53;12.33;;;19.70;99.90;;;;;;5093883;28;20452;-64
2021/07/20 07:52:58;;;;;;;15.47;11.60;;;19.80;99.90;;;;;;5093814;28;20532;-65
2021/07/20 07:55:25;;;;;;;14.10;11.70;;;19.70;99.90;;;;;;5094140;28;20446;-66
2021/07/20 07:57:54;;;;;;;13.33;11.63;;;19.80;99.90;;;;;;5093849;28;20454;-66
2021/07/20 08:00:21;;;;;;;18.30;12.57;;;20.00;99.90;;;;;;5093503;28;20459;-66
2021/07/20 08:02:52;;;;;;;14.00;11.10;;;20.10;99.90;;;;;;5093619;28;20449;-65
2021/07/20 08:05:23;;;;;;;15.10;11.70;;;20.30;99.90;;;;;;5093876;28;20442;-66
2021/07/20 08:07:50;;;;;;;15.97;12.33;;;20.30;99.90;;;;;;5093690;28;20989;-66
2021/07/20 08:10:18;;;;;;;14.93;10.93;;;20.40;99.90;;;;;;5093435;28;20537;-66
2021/07/20 08:12:47;;;;;;;14.30;11.43;;;20.50;99.90;;;;;;5093031;28;20478;-66
2021/07/20 08:15:18;;;;;;;12.50;11.13;;;20.50;99.90;;;;;;5093627;28;20462;-65
2021/07/20 08:17:46;;;;;;;12.00;10.80;;;20.60;99.90;;;;;;5093556;28;20434;-65
2021/07/20 08:20:14;;;;;;;13.63;10.77;;;20.60;99.90;;;;;;5093524;28;20464;-66
2021/07/20 08:22:42;;;;;;;13.63;10.77;;;20.50;99.90;;;;;;5093356;28;20438;-68
2021/07/20 08:25:13;;;;;;;18.63;12.27;;;20.80;99.90;;;;;;5093265;28;20560;-66
2021/07/20 08:27:44;;;;;;;14.03;11.47;;;21.00;99.90;;;;;;5093606;28;20446;-67
2021/07/20 08:30:12;;;;;;;17.07;11.10;;;20.90;99.90;;;;;;5093028;28;20476;-67
2021/07/20 08:32:49;;;;;;;14.43;11.90;;;21.00;99.90;;;;;;5093326;28;20478;-67
2021/07/20 08:35:20;;;;;;;12.67;9.80;;;21.20;99.90;;;;;;5093613;28;20922;-66
2021/07/20 08:37:49;;;;;;;13.93;10.40;;;21.20;99.90;;;;;;5093270;28;20485;-65
2021/07/20 08:40:28;;;;;;;15.47;11.03;;;21.20;99.90;;;;;;5092701;28;20452;-67
2021/07/20 08:43:06;;;;;;;11.73;10.40;;;21.30;99.90;;;;;;5093069;28;20430;-65
2021/07/20 08:45:36;;;;;;;12.77;10.37;;;21.40;99.90;;;;;;5093187;28;20524;-65
2021/07/20 08:48:18;;;;;;;16.30;9.97;;;21.50;99.90;;;;;;5092997;28;20455;-66
2021/07/20 08:50:52;;;;;;;12.63;10.80;;;21.60;99.90;;;;;;5092908;28;20448;-66
2021/07/20 08:53:32;;;;;;;12.90;10.17;;;21.60;99.90;;;;;;5092893;28;20886;-66
2021/07/20 08:56:01;;;;;;;13.67;11.40;;;21.60;99.90;;;;;;5092416;28;20445;-67
2021/07/20 08:58:32;;;;;;;12.20;10.63;;;21.80;99.90;;;;;;5092661;28;20472;-67
2021/07/20 09:01:08;;;;;;;13.00;10.00;;;22.00;99.90;;;;;;5092799;28;20456;-66
2021/07/20 09:03:55;;;;;;;11.90;10.67;;;21.90;99.90;;;;;;5093025;28;20480;-67
2021/07/20 09:06:29;;;;;;;13.67;10.60;;;21.90;99.90;;;;;;5093049;28;20470;-66
2021/07/20 09:09:02;;;;;;;26.87;11.00;;;22.00;99.90;;;;;;5092531;28;20967;-66
2021/07/20 09:11:41;;;;;;;15.60;11.10;;;22.30;99.90;;;;;;5092845;28;20896;-66
2021/07/20 09:14:16;;;;;;;16.67;12.03;;;22.40;99.90;;;;;;5092671;28;20547;-65
2021/07/20 09:16:46;;;;;;;12.00;10.80;;;22.60;99.90;;;;;;5092819;28;20453;-66
2021/07/20 09:19:24;;;;;;;17.60;11.53;;;22.50;99.90;;;;;;5092155;28;20458;-66
2021/07/20 09:21:57;;;;;;;12.27;10.97;;;22.40;99.90;;;;;;5092625;28;20873;-66
2021/07/20 09:24:30;;;;;;;13.40;10.50;;;22.20;99.90;;;;;;5092583;28;20841;-66
2021/07/20 09:27:07;;;;;;;12.83;10.87;;;22.00;99.90;;;;;;5092246;28;21027;-66
2021/07/20 09:29:38;;;;;;;12.77;11.13;;;22.00;99.90;;;;;;5092085;28;20513;-66
2021/07/20 09:32:13;;;;;;;15.63;11.70;;;22.30;99.90;;;;;;5092275;28;20481;-64
2021/07/20 09:35:06;;;;;;;12.13;10.40;;;22.60;99.90;;;;;;5092059;28;21002;-67
2021/07/20 09:37:40;;;;;;;11.63;10.23;;;22.80;99.90;;;;;;5092172;28;20533;-67
2021/07/20 09:40:25;;;;;;;15.03;11.03;;;22.80;99.90;;;;;;5091573;28;20450;-66
2021/07/20 09:43:02;;;;;;;13.10;11.30;;;22.70;99.90;;;;;;5092019;28;20457;-65
2021/07/20 09:45:33;;;;;;;14.70;11.43;;;22.90;99.90;;;;;;5091844;28;20682;-66
2021/07/20 09:48:08;;;;;;;11.97;10.20;;;23.00;99.90;;;;;;5091771;28;20537;-66
2021/07/20 09:50:41;;;;;;;11.73;10.53;;;22.80;99.90;;;;;;5091281;28;20437;-66
2021/07/20 09:53:48;;;;;;;14.67;11.57;;;22.80;99.90;;;;;;5091626;28;20488;-65
2021/07/20 09:56:38;;;;;;;12.90;10.50;;;22.90;99.90;;;;;;5083008;28;20465;-66
2021/07/20 09:59:21;;;;;;;13.43;11.47;;;23.60;99.90;;;;;;5091127;28;20446;-68
2021/07/20 10:01:54;;;;;;;13.63;11.37;;;24.40;99.90;;;;;;5091633;28;20446;-66
2021/07/20 10:04:28;;;;;;;12.53;10.57;;;24.80;99.90;;;;;;5088807;28;20553;-67
2021/07/20 10:07:02;;;;;;;12.37;11.17;;;25.00;99.90;;;;;;5079921;28;20977;-66
2021/07/20 10:09:34;;;;;;;13.13;11.73;;;25.30;99.90;;;;;;5075316;28;20817;-66
2021/07/20 10:12:07;;;;;;;13.63;11.43;;;25.40;99.90;;;;;;5081602;28;20619;-66
2021/07/20 10:14:49;;;;;;;14.27;12.77;;;25.60;99.80;;;;;;5083251;28;20457;-66
2021/07/20 10:17:25;;;;;;;13.17;11.77;;;25.60;99.90;;;;;;5070254;28;20439;-66
2021/07/20 10:19:56;;;;;;;13.70;12.40;;;25.80;99.90;;;;;;5070015;28;20447;-66
2021/07/20 10:22:29;;;;;;;13.40;11.20;;;26.10;99.60;;;;;;5079700;28;20450;-65
2021/07/20 10:25:02;;;;;;;13.27;11.10;;;26.10;99.90;;;;;;5079393;28;20468;-66
2021/07/20 10:27:37;;;;;;;15.43;12.13;;;26.00;99.00;;;;;;5070196;28;20538;-66
2021/07/20 10:30:08;;;;;;;12.50;11.20;;;26.10;99.60;;;;;;5070655;28;20490;-63
2021/07/20 10:32:46;;;;;;;13.87;12.47;;;26.70;98.80;;;;;;5070638;28;20573;-64
2021/07/20 10:35:19;;;;;;;13.03;11.73;;;26.90;97.00;;;;;;5070561;28;20474;-64
2021/07/20 10:37:52;;;;;;;14.10;12.60;;;26.70;97.20;;;;;;5070370;28;20458;-64
2021/07/20 10:40:23;;;;;;;14.17;12.67;;;26.30;97.50;;;;;;5069922;28;20443;-64
2021/07/20 10:42:55;;;;;;;13.70;12.40;;;25.50;98.50;;;;;;5070419;28;20449;-64
2021/07/20 10:45:24;;;;;;;14.37;12.13;;;25.70;99.90;;;;;;5070456;28;20443;-64
2021/07/20 10:47:57;;;;;;;14.67;13.10;;;26.50;98.00;;;;;;5070307;28;20455;-64
2021/07/20 10:50:28;;;;;;;14.03;12.40;;;26.90;97.10;;;;;;5069496;28;20932;-63
2021/07/20 10:53:17;;;;;;;13.73;11.87;;;26.70;97.00;;;;;;5072329;28;20465;-62
2021/07/20 10:55:54;;;;;;;15.13;13.53;;;26.70;97.30;;;;;;5069682;28;20452;-64
2021/07/20 10:58:30;;;;;;;13.10;11.77;;;26.40;97.30;;;;;;5071558;28;20431;-63
2021/07/20 11:01:03;;;;;;;14.27;12.50;;;26.20;99.90;;;;;;5069320;28;20446;-65
2021/07/20 11:03:36;;;;;;;14.73;13.13;;;26.80;96.70;;;;;;5069578;28;20455;-64
2021/07/20 11:06:05;;;;;;;13.83;12.37;;;26.40;97.00;;;;;;5070160;28;20490;-65
2021/07/20 11:08:36;;;;;;;14.50;12.60;;;26.00;97.70;;;;;;5070389;28;20455;-65
2021/07/20 11:11:03;;;;;;;12.57;10.77;;;26.10;97.60;;;;;;5069791;28;20457;-66
2021/07/20 11:13:33;;;;;;;13.93;12.50;;;26.40;97.40;;;;;;5069672;28;20497;-66
2021/07/20 11:16:04;;;;;;;15.00;13.40;;;26.80;96.70;;;;;;5069867;28;20454;-65
2021/07/20 11:18:34;;;;;;;13.63;12.30;;;27.20;96.10;;;;;;5068949;28;20477;-65
2021/07/20 11:21:02;;;;;;;17.27;12.97;;;27.20;95.40;;;;;;5069662;28;20546;-65
2021/07/20 11:23:34;;;;;;;14.00;12.60;;;26.60;96.30;;;;;;5069575;28;20983;-64
2021/07/20 11:26:03;;;;;;;14.33;12.53;;;26.00;96.80;;;;;;5069546;28;20469;-66
2021/07/20 11:28:31;;;;;;;15.13;13.63;;;26.00;97.20;;;;;;5069160;28;20447;-65
2021/07/20 11:31:01;;;;;;;14.30;12.80;;;26.90;97.40;;;;;;5069704;28;20538;-65
2021/07/20 11:33:33;;;;;;;15.00;13.53;;;27.50;95.70;;;;;;5069216;28;20494;-65
2021/07/20 11:36:01;;;;;;;16.03;12.73;;;28.30;94.50;;;;;;5069566;28;20522;-65
2021/07/20 11:38:33;;;;;;;14.07;12.27;;;27.90;94.50;;;;;;5069275;28;21067;-64
2021/07/20 11:41:12;;;;;;;13.90;12.53;;;28.20;96.20;;;;;;5069280;28;20530;-64
2021/07/20 11:43:48;;;;;;;14.90;13.50;;;27.90;93.80;;;;;;5069064;28;20466;-64
2021/07/20 11:46:18;;;;;;;13.77;12.23;;;27.30;93.60;;;;;;5069451;28;20446;-65
2021/07/20 11:48:52;;;;;;;15.30;12.70;;;26.70;94.40;;;;;;5067367;28;20449;-66
2021/07/20 11:51:24;;;;;;;14.03;12.10;;;25.90;95.20;;;;;;5072804;28;20446;-64
2021/07/20 11:54:01;;;;;;;15.40;12.40;;;25.60;95.50;;;;;;5077058;28;20840;-64
2021/07/20 11:56:31;;;;;;;14.80;13.30;;;26.00;94.90;;;;;;5078526;28;20454;-66
2021/07/20 11:59:36;;;;;;;13.70;12.30;;;26.80;94.80;;;;;;5084995;28;20461;-64
2021/07/20 12:02:52;;;;;;;13.67;11.80;;;27.90;93.00;;;;;;5078801;28;20458;-64
2021/07/20 12:05:35;;;;;;;13.03;11.67;;;28.60;91.60;;;;;;5076007;28;20545;-65
2021/07/20 12:08:11;;;;;;;13.50;11.37;;;28.30;90.90;;;;;;5087155;28;20473;-64
2021/07/20 12:10:46;;;;;;;84.10;24.37;;;27.30;91.60;;;;;;5088866;28;20445;-64
2021/07/20 12:13:17;;;;;;;15.33;12.10;;;27.30;92.80;;;;;;5089598;28;20485;-62
2021/07/20 12:15:45;;;;;;;14.50;11.33;;;27.30;90.90;;;;;;5089071;28;20818;-64
2021/07/20 12:18:12;;;;;;;12.53;11.30;;;27.40;92.60;;;;;;5089163;28;20501;-64
2021/07/20 12:20:42;;;;;;;13.37;11.97;;;28.20;92.40;;;;;;5088816;28;20442;-64
2021/07/20 12:23:11;;;;;;;12.67;11.00;;;28.70;90.00;;;;;;5089425;28;20857;-64
2021/07/20 12:25:39;;;;;;;14.97;12.10;;;28.20;90.70;;;;;;5089441;28;20813;-65
2021/07/20 12:28:07;;;;;;;12.67;11.37;;;27.60;90.30;;;;;;5089799;28;20522;-65
2021/07/20 12:30:35;;;;;;;15.00;11.60;;;27.90;91.00;;;;;;5091756;28;20437;-64
2021/07/20 12:33:04;;;;;;;18.43;12.30;;;29.00;89.40;;;;;;5092652;28;20481;-65
2021/07/20 12:35:32;;;;;;;15.63;12.10;;;30.10;92.10;;;;;;5093277;28;20446;-64
2021/07/20 12:38:02;;;;;;;12.87;11.53;;;30.40;82.50;;;;;;5092947;28;20533;-64
2021/07/20 12:40:30;;;;;;;12.70;11.50;;;30.30;86.60;;;;;;5092750;28;20529;-64
2021/07/20 12:43:07;;;;;;;12.10;10.90;;;30.00;85.20;;;;;;5092296;28;20438;-65
2021/07/20 12:45:40;;;;;;;13.10;11.80;;;30.10;90.80;;;;;;5090358;28;20433;-65
2021/07/20 12:48:07;;;;;;;11.47;10.27;;;31.00;84.90;;;;;;5089711;28;20492;-64